sensor_id;sensor_type;location;lat;lon;timestamp;pressure;altitude;pressure_sealevel;temperature;humidity
54270;BME280;40181;51.560;13.000;2023-03-19T00:01:33;100480.25;;;8.25;72.97
54270;BME280;40181;51.560;13.000;2023-03-19T00:04:03;100496.75;;;8.22;73.21
54270;BME280;40181;51.560;13.000;2023-03-19T00:06:32;100491.88;;;8.38;72.60
54270;BME280;40181;51.560;13.000;2023-03-19T00:09:02;100495.13;;;8.27;72.79
54270;BME280;40181;51.560;13.000;2023-03-19T00:11:31;100493.56;;;8.36;72.65
54270;BME280;40181;51.560;13.000;2023-03-19T00:14:04;100494.13;;;8.21;72.97
54270;BME280;40181;51.560;13.000;2023-03-19T00:16:33;100487.97;;;8.19;72.95
54270;BME280;40181;51.560;13.000;2023-03-19T00:19:03;100491.31;;;8.13;73.08
54270;BME280;40181;51.560;13.000;2023-03-19T00:21:32;100487.97;;;8.19;72.79
54270;BME280;40181;51.560;13.000;2023-03-19T00:24:02;100483.81;;;8.28;72.53
54270;BME280;40181;51.560;13.000;2023-03-19T00:26:32;100485.63;;;8.31;72.66
54270;BME280;40181;51.560;13.000;2023-03-19T00:29:05;100486.47;;;8.30;72.69
54270;BME280;40181;51.560;13.000;2023-03-19T00:31:35;100482.78;;;8.20;72.53
54270;BME280;40181;51.560;13.000;2023-03-19T00:34:05;100488.94;;;8.24;73.14
54270;BME280;40181;51.560;13.000;2023-03-19T00:36:35;100486.44;;;8.28;73.06
54270;BME280;40181;51.560;13.000;2023-03-19T00:39:04;100499.69;;;8.36;72.70
54270;BME280;40181;51.560;13.000;2023-03-19T00:41:34;100494.25;;;8.27;72.81
54270;BME280;40181;51.560;13.000;2023-03-19T00:44:08;100496.75;;;8.22;72.60
54270;BME280;40181;51.560;13.000;2023-03-19T00:46:37;100501.44;;;8.36;72.55
54270;BME280;40181;51.560;13.000;2023-03-19T00:49:06;100484.44;;;8.16;72.85
54270;BME280;40181;51.560;13.000;2023-03-19T00:51:35;100494.53;;;8.01;73.29
54270;BME280;40181;51.560;13.000;2023-03-19T00:54:09;100488.56;;;8.05;73.76
54270;BME280;40181;51.560;13.000;2023-03-19T00:56:38;100483.56;;;8.17;73.16
54270;BME280;40181;51.560;13.000;2023-03-19T00:59:10;100483.88;;;8.30;72.88
54270;BME280;40181;51.560;13.000;2023-03-19T01:01:39;100482.66;;;8.15;73.43
54270;BME280;40181;51.560;13.000;2023-03-19T01:04:08;100491.47;;;8.19;73.38
54270;BME280;40181;51.560;13.000;2023-03-19T01:06:38;100489.53;;;8.10;73.50
54270;BME280;40181;51.560;13.000;2023-03-19T01:09:08;100495.00;;;8.21;73.30
54270;BME280;40181;51.560;13.000;2023-03-19T01:11:37;100485.13;;;8.08;74.06
54270;BME280;40181;51.560;13.000;2023-03-19T01:14:06;100480.84;;;8.13;73.85
54270;BME280;40181;51.560;13.000;2023-03-19T01:16:38;100478.19;;;8.10;73.71
54270;BME280;40181;51.560;13.000;2023-03-19T01:19:07;100473.75;;;8.07;73.40
54270;BME280;40181;51.560;13.000;2023-03-19T01:21:37;100491.16;;;8.05;73.54
54270;BME280;40181;51.560;13.000;2023-03-19T01:24:10;100479.69;;;7.98;74.34
54270;BME280;40181;51.560;13.000;2023-03-19T01:26:39;100480.31;;;7.88;74.37
54270;BME280;40181;51.560;13.000;2023-03-19T01:29:11;100482.50;;;8.08;73.95
54270;BME280;40181;51.560;13.000;2023-03-19T01:31:40;100485.63;;;7.91;74.49
54270;BME280;40181;51.560;13.000;2023-03-19T01:34:10;100492.41;;;7.83;74.96
54270;BME280;40181;51.560;13.000;2023-03-19T01:36:39;100482.59;;;7.74;74.99
54270;BME280;40181;51.560;13.000;2023-03-19T01:39:08;100479.91;;;7.71;75.49
54270;BME280;40181;51.560;13.000;2023-03-19T01:41:38;100478.72;;;7.95;75.04
54270;BME280;40181;51.560;13.000;2023-03-19T01:44:27;100482.25;;;7.97;75.21
54270;BME280;40181;51.560;13.000;2023-03-19T01:46:59;100492.94;;;8.06;74.39
54270;BME280;40181;51.560;13.000;2023-03-19T01:49:31;100480.56;;;7.99;74.68
54270;BME280;40181;51.560;13.000;2023-03-19T01:52:02;100483.25;;;8.02;74.52
54270;BME280;40181;51.560;13.000;2023-03-19T01:54:33;100474.19;;;7.87;74.83
54270;BME280;40181;51.560;13.000;2023-03-19T01:57:07;100479.59;;;7.95;74.38
54270;BME280;40181;51.560;13.000;2023-03-19T01:59:44;100468.16;;;7.90;74.89
54270;BME280;40181;51.560;13.000;2023-03-19T02:02:20;100464.78;;;7.96;74.43
54270;BME280;40181;51.560;13.000;2023-03-19T02:04:55;100468.38;;;8.01;74.50
54270;BME280;40181;51.560;13.000;2023-03-19T02:07:27;100469.22;;;7.98;74.35
54270;BME280;40181;51.560;13.000;2023-03-19T02:09:58;100476.13;;;7.95;74.70
54270;BME280;40181;51.560;13.000;2023-03-19T02:12:28;100471.63;;;7.89;74.36
54270;BME280;40181;51.560;13.000;2023-03-19T02:15:00;100476.59;;;7.78;74.88
54270;BME280;40181;51.560;13.000;2023-03-19T02:17:29;100467.31;;;7.91;74.65
54270;BME280;40181;51.560;13.000;2023-03-19T02:20:03;100472.28;;;7.80;75.07
54270;BME280;40181;51.560;13.000;2023-03-19T02:22:40;100467.84;;;7.76;75.12
54270;BME280;40181;51.560;13.000;2023-03-19T02:25:18;100471.22;;;7.72;75.20
54270;BME280;40181;51.560;13.000;2023-03-19T02:27:54;100465.97;;;7.72;75.33
54270;BME280;40181;51.560;13.000;2023-03-19T02:30:26;100467.16;;;7.85;74.98
54270;BME280;40181;51.560;13.000;2023-03-19T02:32:57;100460.13;;;7.82;74.58
54270;BME280;40181;51.560;13.000;2023-03-19T02:35:29;100465.41;;;7.84;74.52
54270;BME280;40181;51.560;13.000;2023-03-19T02:38:02;100456.53;;;7.79;74.67
54270;BME280;40181;51.560;13.000;2023-03-19T02:40:35;100456.81;;;7.89;74.84
54270;BME280;40181;51.560;13.000;2023-03-19T02:43:10;100456.41;;;7.72;75.04
54270;BME280;40181;51.560;13.000;2023-03-19T02:45:40;100459.91;;;7.73;75.06
54270;BME280;40181;51.560;13.000;2023-03-19T02:48:09;100461.81;;;7.80;74.90
54270;BME280;40181;51.560;13.000;2023-03-19T02:50:38;100465.97;;;7.70;75.23
54270;BME280;40181;51.560;13.000;2023-03-19T02:53:07;100461.81;;;7.80;74.79
54270;BME280;40181;51.560;13.000;2023-03-19T02:55:36;100466.28;;;7.84;74.79
54270;BME280;40181;51.560;13.000;2023-03-19T02:58:06;100469.88;;;7.88;74.74
54270;BME280;40181;51.560;13.000;2023-03-19T03:00:38;100468.53;;;7.69;74.63
54270;BME280;40181;51.560;13.000;2023-03-19T03:03:09;100481.03;;;7.82;74.79
54270;BME280;40181;51.560;13.000;2023-03-19T03:05:39;100484.97;;;7.63;75.23
54270;BME280;40181;51.560;13.000;2023-03-19T03:08:08;100490.78;;;7.51;75.98
54270;BME280;40181;51.560;13.000;2023-03-19T03:10:37;100485.47;;;7.48;76.09
54270;BME280;40181;51.560;13.000;2023-03-19T03:13:06;100501.50;;;7.62;75.77
54270;BME280;40181;51.560;13.000;2023-03-19T03:15:38;100489.66;;;7.41;76.38
54270;BME280;40181;51.560;13.000;2023-03-19T03:18:07;100495.22;;;7.55;75.95
54270;BME280;40181;51.560;13.000;2023-03-19T03:20:36;100499.00;;;7.67;75.65
54270;BME280;40181;51.560;13.000;2023-03-19T03:23:05;100486.72;;;7.64;75.44
54270;BME280;40181;51.560;13.000;2023-03-19T03:25:34;100480.75;;;7.70;75.48
54270;BME280;40181;51.560;13.000;2023-03-19T03:28:03;100483.44;;;7.73;75.19
54270;BME280;40181;51.560;13.000;2023-03-19T03:30:33;100484.19;;;7.67;74.98
54270;BME280;40181;51.560;13.000;2023-03-19T03:33:05;100494.84;;;7.75;74.52
54270;BME280;40181;51.560;13.000;2023-03-19T03:35:34;100496.44;;;7.70;74.58
54270;BME280;40181;51.560;13.000;2023-03-19T03:38:03;100488.34;;;7.59;75.05
54270;BME280;40181;51.560;13.000;2023-03-19T03:40:32;100498.69;;;7.54;74.97
54270;BME280;40181;51.560;13.000;2023-03-19T03:43:01;100498.63;;;7.51;74.85
54270;BME280;40181;51.560;13.000;2023-03-19T03:45:30;100487.47;;;7.58;75.09
54270;BME280;40181;51.560;13.000;2023-03-19T03:48:00;100493.63;;;7.60;74.77
54270;BME280;40181;51.560;13.000;2023-03-19T03:50:32;100491.06;;;7.64;74.50
54270;BME280;40181;51.560;13.000;2023-03-19T03:53:01;100494.63;;;7.66;74.68
54270;BME280;40181;51.560;13.000;2023-03-19T03:55:31;100491.19;;;7.68;74.90
54270;BME280;40181;51.560;13.000;2023-03-19T03:58:00;100494.41;;;7.58;75.23
54270;BME280;40181;51.560;13.000;2023-03-19T04:00:29;100495.22;;;7.55;75.06
54270;BME280;40181;51.560;13.000;2023-03-19T04:02:58;100500.25;;;7.47;75.92
54270;BME280;40181;51.560;13.000;2023-03-19T04:05:27;100490.03;;;7.57;75.69
54270;BME280;40181;51.560;13.000;2023-03-19T04:07:59;100493.44;;;7.54;75.23
54270;BME280;40181;51.560;13.000;2023-03-19T04:10:28;100501.28;;;7.53;75.72
54270;BME280;40181;51.560;13.000;2023-03-19T04:13:00;100502.66;;;7.73;75.13
54270;BME280;40181;51.560;13.000;2023-03-19T04:15:29;100509.81;;;7.47;76.12
54270;BME280;40181;51.560;13.000;2023-03-19T04:17:58;100497.59;;;7.46;76.15
54270;BME280;40181;51.560;13.000;2023-03-19T04:20:27;100500.34;;;7.51;76.40
54270;BME280;40181;51.560;13.000;2023-03-19T04:22:59;100497.94;;;7.60;75.71
54270;BME280;40181;51.560;13.000;2023-03-19T04:25:28;100491.53;;;7.47;76.22
54270;BME280;40181;51.560;13.000;2023-03-19T04:27:57;100485.84;;;7.64;75.83
54270;BME280;40181;51.560;13.000;2023-03-19T04:30:28;100479.22;;;7.78;75.61
54270;BME280;40181;51.560;13.000;2023-03-19T04:32:57;100493.69;;;7.64;75.53
54270;BME280;40181;51.560;13.000;2023-03-19T04:35:26;100491.28;;;7.73;75.56
54270;BME280;40181;51.560;13.000;2023-03-19T04:37:55;100488.44;;;7.62;75.54
54270;BME280;40181;51.560;13.000;2023-03-19T04:40:27;100486.91;;;7.72;75.70
54270;BME280;40181;51.560;13.000;2023-03-19T04:42:56;100489.63;;;7.75;75.51
54270;BME280;40181;51.560;13.000;2023-03-19T04:45:25;100494.13;;;7.82;75.47
54270;BME280;40181;51.560;13.000;2023-03-19T04:47:55;100496.44;;;7.70;75.49
54270;BME280;40181;51.560;13.000;2023-03-19T04:50:24;100496.50;;;7.73;75.50
54270;BME280;40181;51.560;13.000;2023-03-19T04:52:59;100499.84;;;7.66;75.65
54270;BME280;40181;51.560;13.000;2023-03-19T04:55:29;100491.91;;;7.63;76.06
54270;BME280;40181;51.560;13.000;2023-03-19T04:57:58;100491.63;;;7.52;76.21
54270;BME280;40181;51.560;13.000;2023-03-19T05:00:27;100493.63;;;7.60;76.83
54270;BME280;40181;51.560;13.000;2023-03-19T05:02:56;100500.75;;;7.68;76.23
54270;BME280;40181;51.560;13.000;2023-03-19T05:05:25;100497.34;;;7.70;75.67
54270;BME280;40181;51.560;13.000;2023-03-19T05:07:55;100491.28;;;7.71;75.25
54270;BME280;40181;51.560;13.000;2023-03-19T05:10:26;100492.81;;;7.65;75.78
54270;BME280;40181;51.560;13.000;2023-03-19T05:12:56;100494.00;;;7.76;74.99
54270;BME280;40181;51.560;13.000;2023-03-19T05:15:25;100487.53;;;7.61;75.93
54270;BME280;40181;51.560;13.000;2023-03-19T05:17:55;100489.16;;;7.56;75.94
54270;BME280;40181;51.560;13.000;2023-03-19T05:20:24;100498.84;;;7.60;75.69
54270;BME280;40181;51.560;13.000;2023-03-19T05:22:53;100494.69;;;7.69;75.75
54270;BME280;40181;51.560;13.000;2023-03-19T05:25:22;100485.06;;;7.68;75.69
54270;BME280;40181;51.560;13.000;2023-03-19T05:27:54;100492.53;;;7.52;76.42
54270;BME280;40181;51.560;13.000;2023-03-19T05:30:23;100501.47;;;7.60;76.02
54270;BME280;40181;51.560;13.000;2023-03-19T05:32:52;100495.31;;;7.58;76.19
54270;BME280;40181;51.560;13.000;2023-03-19T05:35:24;100501.19;;;7.50;76.87
54270;BME280;40181;51.560;13.000;2023-03-19T05:37:54;100504.59;;;7.47;77.10
54270;BME280;40181;51.560;13.000;2023-03-19T05:40:26;100507.53;;;7.59;76.60
54270;BME280;40181;51.560;13.000;2023-03-19T05:42:56;100506.34;;;7.46;76.83
54270;BME280;40181;51.560;13.000;2023-03-19T05:45:25;100504.00;;;7.57;76.47
54270;BME280;40181;51.560;13.000;2023-03-19T05:47:54;100510.66;;;7.46;77.43
54270;BME280;40181;51.560;13.000;2023-03-19T05:50:23;100513.38;;;7.49;76.96
54270;BME280;40181;51.560;13.000;2023-03-19T05:52:52;100518.06;;;7.63;76.98
54270;BME280;40181;51.560;13.000;2023-03-19T05:55:21;100521.69;;;7.68;76.72
54270;BME280;40181;51.560;13.000;2023-03-19T05:57:53;100518.16;;;7.67;76.58
54270;BME280;40181;51.560;13.000;2023-03-19T06:00:22;100523.28;;;7.63;76.15
54270;BME280;40181;51.560;13.000;2023-03-19T06:02:52;100526.13;;;7.70;76.01
54270;BME280;40181;51.560;13.000;2023-03-19T06:05:21;100530.50;;;7.71;76.34
54270;BME280;40181;51.560;13.000;2023-03-19T06:07:50;100526.19;;;7.73;76.67
54270;BME280;40181;51.560;13.000;2023-03-19T06:10:20;100533.00;;;7.67;76.95
54270;BME280;40181;51.560;13.000;2023-03-19T06:12:49;100535.84;;;7.76;76.37
54270;BME280;40181;51.560;13.000;2023-03-19T06:15:20;100531.47;;;7.75;76.52
54270;BME280;40181;51.560;13.000;2023-03-19T06:17:50;100538.47;;;7.78;76.83
54270;BME280;40181;51.560;13.000;2023-03-19T06:20:19;100542.03;;;7.81;76.25
54270;BME280;40181;51.560;13.000;2023-03-19T06:22:48;100536.69;;;7.77;76.66
54270;BME280;40181;51.560;13.000;2023-03-19T06:25:18;100537.75;;;7.83;76.20
54270;BME280;40181;51.560;13.000;2023-03-19T06:27:47;100542.09;;;7.83;76.42
54270;BME280;40181;51.560;13.000;2023-03-19T06:30:16;100552.72;;;7.89;76.38
54270;BME280;40181;51.560;13.000;2023-03-19T06:32:48;100543.09;;;7.88;76.18
54270;BME280;40181;51.560;13.000;2023-03-19T06:35:17;100537.88;;;7.89;76.13
54270;BME280;40181;51.560;13.000;2023-03-19T06:37:46;100547.59;;;7.94;75.62
54270;BME280;40181;51.560;13.000;2023-03-19T06:40:19;100562.16;;;7.84;75.95
54270;BME280;40181;51.560;13.000;2023-03-19T06:42:48;100564.09;;;7.91;75.46
54270;BME280;40181;51.560;13.000;2023-03-19T06:45:20;100565.06;;;7.96;75.21
54270;BME280;40181;51.560;13.000;2023-03-19T06:47:49;100565.16;;;7.99;75.12
54270;BME280;40181;51.560;13.000;2023-03-19T06:50:18;100574.50;;;7.89;74.92
54270;BME280;40181;51.560;13.000;2023-03-19T06:52:47;100572.16;;;8.00;75.14
54270;BME280;40181;51.560;13.000;2023-03-19T06:55:17;100574.09;;;8.08;74.95
54270;BME280;40181;51.560;13.000;2023-03-19T06:57:47;100581.84;;;8.05;74.92
54270;BME280;40181;51.560;13.000;2023-03-19T07:00:20;100586.84;;;7.95;75.17
54270;BME280;40181;51.560;13.000;2023-03-19T07:02:49;100584.00;;;7.84;75.39
54270;BME280;40181;51.560;13.000;2023-03-19T07:05:18;100578.38;;;8.06;75.56
54270;BME280;40181;51.560;13.000;2023-03-19T07:07:48;100573.38;;;8.15;75.99
54270;BME280;40181;51.560;13.000;2023-03-19T07:10:17;100587.38;;;8.17;75.53
54270;BME280;40181;51.560;13.000;2023-03-19T07:12:47;100582.91;;;8.13;76.78
54270;BME280;40181;51.560;13.000;2023-03-19T07:15:16;100583.59;;;8.06;77.24
54270;BME280;40181;51.560;13.000;2023-03-19T07:17:48;100584.09;;;8.26;76.09
54270;BME280;40181;51.560;13.000;2023-03-19T07:20:17;100578.09;;;8.31;76.26
54270;BME280;40181;51.560;13.000;2023-03-19T07:22:48;100578.03;;;8.28;75.70
54270;BME280;40181;51.560;13.000;2023-03-19T07:25:18;100581.03;;;8.45;75.89
54270;BME280;40181;51.560;13.000;2023-03-19T07:27:47;100578.47;;;8.47;76.20
54270;BME280;40181;51.560;13.000;2023-03-19T07:30:19;100581.03;;;8.45;76.20
54270;BME280;40181;51.560;13.000;2023-03-19T07:32:49;100583.13;;;8.59;76.31
54270;BME280;40181;51.560;13.000;2023-03-19T07:35:18;100583.19;;;8.62;76.18
54270;BME280;40181;51.560;13.000;2023-03-19T07:37:47;100580.75;;;8.71;75.99
54270;BME280;40181;51.560;13.000;2023-03-19T07:40:16;100573.13;;;8.82;76.71
54270;BME280;40181;51.560;13.000;2023-03-19T07:42:46;100570.41;;;8.78;76.88
54270;BME280;40181;51.560;13.000;2023-03-19T07:45:16;100574.84;;;8.82;77.02
54270;BME280;40181;51.560;13.000;2023-03-19T07:47:48;100580.03;;;8.79;77.86
54270;BME280;40181;51.560;13.000;2023-03-19T07:50:18;100576.84;;;8.92;77.85
54270;BME280;40181;51.560;13.000;2023-03-19T07:52:47;100582.00;;;8.88;77.31
54270;BME280;40181;51.560;13.000;2023-03-19T07:55:17;100572.56;;;8.97;76.47
54270;BME280;40181;51.560;13.000;2023-03-19T07:57:46;100577.97;;;9.05;76.22
54270;BME280;40181;51.560;13.000;2023-03-19T08:00:16;100566.72;;;9.12;76.13
54270;BME280;40181;51.560;13.000;2023-03-19T08:02:49;100573.00;;;9.21;76.22
54270;BME280;40181;51.560;13.000;2023-03-19T08:05:18;100574.03;;;9.29;77.01
54270;BME280;40181;51.560;13.000;2023-03-19T08:07:47;100579.41;;;9.35;77.25
54270;BME280;40181;51.560;13.000;2023-03-19T08:10:17;100569.91;;;9.42;77.57
54270;BME280;40181;51.560;13.000;2023-03-19T08:12:46;100563.81;;;9.41;76.96
54270;BME280;40181;51.560;13.000;2023-03-19T08:15:15;100566.59;;;9.52;77.28
54270;BME280;40181;51.560;13.000;2023-03-19T08:17:47;100568.44;;;9.57;76.20
54270;BME280;40181;51.560;13.000;2023-03-19T08:20:16;100558.09;;;9.66;75.98
54270;BME280;40181;51.560;13.000;2023-03-19T08:22:48;100560.84;;;9.74;76.57
54270;BME280;40181;51.560;13.000;2023-03-19T08:25:18;100567.94;;;9.78;75.90
54270;BME280;40181;51.560;13.000;2023-03-19T08:27:47;100575.94;;;9.89;75.07
54270;BME280;40181;51.560;13.000;2023-03-19T08:30:16;100576.06;;;9.95;75.42
54270;BME280;40181;51.560;13.000;2023-03-19T08:32:48;100569.22;;;10.06;75.26
54270;BME280;40181;51.560;13.000;2023-03-19T08:35:18;100557.81;;;10.01;74.86
54270;BME280;40181;51.560;13.000;2023-03-19T08:37:47;100566.69;;;10.09;73.97
54270;BME280;40181;51.560;13.000;2023-03-19T08:40:16;100570.38;;;10.22;74.33
54270;BME280;40181;51.560;13.000;2023-03-19T08:42:45;100574.84;;;10.28;71.63
54270;BME280;40181;51.560;13.000;2023-03-19T08:45:15;100568.69;;;10.28;71.76
54270;BME280;40181;51.560;13.000;2023-03-19T08:47:48;100567.09;;;10.39;70.24
54270;BME280;40181;51.560;13.000;2023-03-19T08:50:18;100575.13;;;10.48;69.21
54270;BME280;40181;51.560;13.000;2023-03-19T08:52:47;100573.50;;;10.57;69.12
54270;BME280;40181;51.560;13.000;2023-03-19T08:55:17;100574.59;;;10.73;69.30
54270;BME280;40181;51.560;13.000;2023-03-19T08:57:46;100578.06;;;10.70;68.95
54270;BME280;40181;51.560;13.000;2023-03-19T09:00:16;100563.34;;;10.85;70.87
54270;BME280;40181;51.560;13.000;2023-03-19T09:02:49;100566.03;;;10.88;69.40
54270;BME280;40181;51.560;13.000;2023-03-19T09:05:18;100569.56;;;10.93;68.83
54270;BME280;40181;51.560;13.000;2023-03-19T09:07:49;100575.94;;;11.12;69.52
54270;BME280;40181;51.560;13.000;2023-03-19T09:10:19;100570.72;;;11.14;69.39
54270;BME280;40181;51.560;13.000;2023-03-19T09:12:48;100577.91;;;11.30;68.85
54270;BME280;40181;51.560;13.000;2023-03-19T09:15:17;100571.00;;;11.42;69.95
54270;BME280;40181;51.560;13.000;2023-03-19T09:17:48;100559.63;;;11.44;67.50
54270;BME280;40181;51.560;13.000;2023-03-19T09:20:18;100578.16;;;11.54;69.95
54270;BME280;40181;51.560;13.000;2023-03-19T09:22:47;100574.56;;;11.45;67.51
54270;BME280;40181;51.560;13.000;2023-03-19T09:25:16;100577.28;;;11.55;68.32
54270;BME280;40181;51.560;13.000;2023-03-19T09:27:46;100576.47;;;11.63;68.37
54270;BME280;40181;51.560;13.000;2023-03-19T09:30:16;100574.75;;;11.67;68.02
54270;BME280;40181;51.560;13.000;2023-03-19T09:32:45;100587.09;;;11.74;68.87
54270;BME280;40181;51.560;13.000;2023-03-19T09:35:17;100583.59;;;11.75;67.04
54270;BME280;40181;51.560;13.000;2023-03-19T09:37:47;100581.00;;;11.83;66.73
54270;BME280;40181;51.560;13.000;2023-03-19T09:40:23;100595.97;;;11.86;67.20
54270;BME280;40181;51.560;13.000;2023-03-19T09:42:59;100585.47;;;11.87;67.10
54270;BME280;40181;51.560;13.000;2023-03-19T09:45:34;100602.22;;;12.02;66.58
54270;BME280;40181;51.560;13.000;2023-03-19T09:48:12;100593.63;;;12.17;68.39
54270;BME280;40181;51.560;13.000;2023-03-19T09:50:45;100591.91;;;12.21;66.82
54270;BME280;40181;51.560;13.000;2023-03-19T09:53:22;100597.16;;;12.22;65.88
54270;BME280;40181;51.560;13.000;2023-03-19T09:55:57;100606.84;;;12.25;65.39
54270;BME280;40181;51.560;13.000;2023-03-19T09:58:30;100598.06;;;12.29;64.91
54270;BME280;40181;51.560;13.000;2023-03-19T10:01:02;100604.25;;;12.32;65.42
54270;BME280;40181;51.560;13.000;2023-03-19T10:03:42;100599.94;;;12.42;66.33
54270;BME280;40181;51.560;13.000;2023-03-19T10:06:25;100603.53;;;12.58;66.52
54270;BME280;40181;51.560;13.000;2023-03-19T10:09:24;100601.88;;;12.70;65.77
54270;BME280;40181;51.560;13.000;2023-03-19T10:12:07;100605.41;;;12.80;66.20
54270;BME280;40181;51.560;13.000;2023-03-19T10:14:54;100598.41;;;12.88;64.40
54270;BME280;40181;51.560;13.000;2023-03-19T10:17:37;100602.00;;;13.06;66.82
54270;BME280;40181;51.560;13.000;2023-03-19T10:20:16;100598.50;;;13.07;64.34
54270;BME280;40181;51.560;13.000;2023-03-19T10:22:55;100603.81;;;13.13;63.68
54270;BME280;40181;51.560;13.000;2023-03-19T10:25:31;100611.66;;;12.99;63.92
54270;BME280;40181;51.560;13.000;2023-03-19T10:28:10;100602.03;;;13.13;64.26
54270;BME280;40181;51.560;13.000;2023-03-19T10:30:46;100605.59;;;13.25;65.14
54270;BME280;40181;51.560;13.000;2023-03-19T10:33:22;100600.28;;;13.11;63.57
54270;BME280;40181;51.560;13.000;2023-03-19T10:35:57;100602.06;;;13.27;62.75
54270;BME280;40181;51.560;13.000;2023-03-19T10:38:30;100602.97;;;13.31;62.76
54270;BME280;40181;51.560;13.000;2023-03-19T10:41:17;100599.56;;;13.59;65.79
54270;BME280;40181;51.560;13.000;2023-03-19T10:44:01;100602.22;;;13.60;64.80
54270;BME280;40181;51.560;13.000;2023-03-19T10:46:37;100601.31;;;13.74;62.73
54270;BME280;40181;51.560;13.000;2023-03-19T10:49:10;100603.97;;;13.81;64.09
54270;BME280;40181;51.560;13.000;2023-03-19T10:51:45;100587.25;;;13.79;62.35
54270;BME280;40181;51.560;13.000;2023-03-19T10:54:19;100594.28;;;13.82;61.64
54270;BME280;40181;51.560;13.000;2023-03-19T10:56:50;100586.38;;;13.87;61.47
54270;BME280;40181;51.560;13.000;2023-03-19T10:59:25;100582.84;;;13.89;61.77
54270;BME280;40181;51.560;13.000;2023-03-19T11:02:01;100587.25;;;14.06;61.65
54270;BME280;40181;51.560;13.000;2023-03-19T11:04:34;100585.50;;;14.14;61.21
54270;BME280;40181;51.560;13.000;2023-03-19T11:07:09;100590.75;;;14.25;62.19
54270;BME280;40181;51.560;13.000;2023-03-19T11:09:41;100585.44;;;14.39;63.08
54270;BME280;40181;51.560;13.000;2023-03-19T11:12:17;100575.75;;;14.43;62.58
54270;BME280;40181;51.560;13.000;2023-03-19T11:14:50;100580.16;;;14.44;63.31
54270;BME280;40181;51.560;13.000;2023-03-19T11:17:21;100593.41;;;14.23;62.03
54270;BME280;40181;51.560;13.000;2023-03-19T11:19:54;100579.28;;;14.42;61.81
54270;BME280;40181;51.560;13.000;2023-03-19T11:22:30;100584.50;;;14.62;62.57
54270;BME280;40181;51.560;13.000;2023-03-19T11:25:04;100571.28;;;14.68;62.71
54270;BME280;40181;51.560;13.000;2023-03-19T11:27:43;100576.56;;;14.66;61.49
54270;BME280;40181;51.560;13.000;2023-03-19T11:30:16;100576.59;;;14.56;61.61
54270;BME280;40181;51.560;13.000;2023-03-19T11:36:06;100568.56;;;14.96;60.43
54270;BME280;40181;51.560;13.000;2023-03-19T11:38:55;100561.59;;;14.73;60.82
54270;BME280;40181;51.560;13.000;2023-03-19T11:41:45;100564.16;;;14.92;60.89
54270;BME280;40181;51.560;13.000;2023-03-19T11:44:26;100553.59;;;14.87;62.16
54270;BME280;40181;51.560;13.000;2023-03-19T11:47:04;100555.25;;;15.07;62.55
54270;BME280;40181;51.560;13.000;2023-03-19T11:49:45;100558.84;;;14.97;61.26
54270;BME280;40181;51.560;13.000;2023-03-19T11:52:24;100558.84;;;14.98;61.50
54270;BME280;40181;51.560;13.000;2023-03-19T11:55:14;100560.41;;;15.33;62.65
54270;BME280;40181;51.560;13.000;2023-03-19T11:57:57;100549.78;;;15.41;62.05
54270;BME280;40181;51.560;13.000;2023-03-19T12:00:35;100549.66;;;15.58;61.97
54270;BME280;40181;51.560;13.000;2023-03-19T12:03:28;100551.31;;;15.70;59.96
54270;BME280;40181;51.560;13.000;2023-03-19T12:06:27;100553.81;;;15.89;59.64
54270;BME280;40181;51.560;13.000;2023-03-19T12:09:03;100551.19;;;15.92;60.16
54270;BME280;40181;51.560;13.000;2023-03-19T12:11:46;100551.31;;;15.70;58.83
54270;BME280;40181;51.560;13.000;2023-03-19T12:14:34;100547.84;;;15.62;58.36
54270;BME280;40181;51.560;13.000;2023-03-19T12:17:28;100548.00;;;15.39;58.65
54270;BME280;40181;51.560;13.000;2023-03-19T12:20:29;100547.00;;;15.63;59.55
54270;BME280;40181;51.560;13.000;2023-03-19T12:23:11;100536.16;;;15.94;58.47
54270;BME280;40181;51.560;13.000;2023-03-19T12:25:57;100543.16;;;16.01;59.65
54270;BME280;40181;51.560;13.000;2023-03-19T12:28:37;100546.72;;;15.97;58.32
54270;BME280;40181;51.560;13.000;2023-03-19T12:31:26;100543.16;;;16.00;57.45
54270;BME280;40181;51.560;13.000;2023-03-19T12:34:22;100550.06;;;16.15;58.33
54270;BME280;40181;51.560;13.000;2023-03-19T12:37:11;100551.91;;;16.10;58.23
54270;BME280;40181;51.560;13.000;2023-03-19T12:39:51;100535.97;;;16.14;57.87
54270;BME280;40181;51.560;13.000;2023-03-19T12:42:28;100539.41;;;16.23;58.95
54270;BME280;40181;51.560;13.000;2023-03-19T12:45:07;100533.28;;;16.16;58.49
54270;BME280;40181;51.560;13.000;2023-03-19T12:47:53;100530.63;;;16.17;59.02
54270;BME280;40181;51.560;13.000;2023-03-19T12:50:27;100534.97;;;16.25;59.29
54270;BME280;40181;51.560;13.000;2023-03-19T12:52:59;100537.56;;;16.29;59.29
54270;BME280;40181;51.560;13.000;2023-03-19T12:55:36;100533.22;;;16.22;59.27
54270;BME280;40181;51.560;13.000;2023-03-19T12:58:15;100536.78;;;16.20;59.57
54270;BME280;40181;51.560;13.000;2023-03-19T13:00:53;100536.72;;;16.27;59.99
54270;BME280;40181;51.560;13.000;2023-03-19T13:03:31;100538.47;;;16.28;59.80
54270;BME280;40181;51.560;13.000;2023-03-19T13:06:07;100531.09;;;16.55;60.31
54270;BME280;40181;51.560;13.000;2023-03-19T13:08:41;100533.03;;;16.41;59.98
54270;BME280;40181;51.560;13.000;2023-03-19T13:11:14;100531.97;;;16.57;59.61
54270;BME280;40181;51.560;13.000;2023-03-19T13:13:50;100543.81;;;16.25;59.95
54270;BME280;40181;51.560;13.000;2023-03-19T13:16:32;100540.22;;;16.29;60.08